Time;durP1;ratioP1;P1;durP2;ratioP2;P2;SDS_P1;SDS_P2;PMS_P1;PMS_P2;Temp;Humidity;BMP_temperature;BMP_pressure;BME280_temperature;BME280_humidity;BME280_pressure;Samples;Min_cycle;Max_cycle;Signal;HPM_P1;HPM_P2
2022/12/24 00:00:13;;;;;;;15.83;3.43;;;;;;;9.65;100.00;99894.44;687405;28;957;-67
2022/12/24 00:00:33;;;;;;;16.87;3.70;;;;;;;9.67;100.00;99897.91;687128;28;993;-67
2022/12/24 00:00:56;;;;;;;16.92;3.40;;;;;;;9.64;100.00;99895.34;687450;28;4466;-67
2022/12/24 00:01:17;;;;;;;14.95;3.85;;;;;;;9.74;100.00;99891.72;689841;28;1124;-66
2022/12/24 00:01:37;;;;;;;15.70;3.70;;;;;;;9.73;100.00;99910.00;689418;28;1277;-67
2022/12/24 00:01:57;;;;;;;17.42;3.75;;;;;;;9.80;100.00;99896.00;690201;28;1127;-64
2022/12/24 00:02:18;;;;;;;18.30;3.50;;;;;;;9.82;100.00;99900.31;687258;28;1240;-65
2022/12/24 00:02:39;;;;;;;15.43;3.55;;;;;;;9.80;100.00;99901.22;687596;28;1048;-64
2022/12/24 00:02:59;;;;;;;15.18;3.88;;;;;;;9.80;100.00;99896.88;687152;28;1609;-65
2022/12/24 00:03:20;;;;;;;15.63;3.80;;;;;;;9.87;100.00;99903.72;687598;28;1015;-67
2022/12/24 00:03:41;;;;;;;16.40;3.30;;;;;;;9.84;100.00;99906.38;682672;28;4581;-66
2022/12/24 00:04:01;;;;;;;17.75;3.50;;;;;;;9.83;100.00;99907.25;681849;28;1136;-67
2022/12/24 00:04:22;;;;;;;16.63;3.72;;;;;;;9.80;100.00;99902.09;682096;28;1064;-66
2022/12/24 00:04:42;;;;;;;16.97;3.70;;;;;;;9.78;100.00;99908.22;683231;28;2416;-66
2022/12/24 00:05:03;;;;;;;19.50;3.90;;;;;;;9.76;100.00;99909.97;682682;28;2705;-67
2022/12/24 00:05:23;;;;;;;16.13;3.53;;;;;;;9.71;100.00;99910.88;684634;28;1170;-65
2022/12/24 00:05:44;;;;;;;15.50;3.72;;;;;;;9.77;100.00;99917.78;687986;28;1382;-65
2022/12/24 00:06:09;;;;;;;15.33;3.70;;;;;;;9.86;100.00;99908.97;685581;28;1356;-66
2022/12/24 00:06:29;;;;;;;14.88;3.47;;;;;;;9.78;100.00;99909.06;688128;28;1373;-66
2022/12/24 00:06:50;;;;;;;19.10;3.95;;;;;;;9.76;100.00;99912.56;687188;28;4625;-67
2022/12/24 00:07:10;;;;;;;17.97;3.70;;;;;;;9.71;100.00;99910.03;687049;28;950;-66
2022/12/24 00:07:31;;;;;;;17.10;3.80;;;;;;;9.77;100.00;99907.34;685237;28;1285;-67
2022/12/24 00:07:51;;;;;;;16.77;3.83;;;;;;;9.75;100.00;99906.50;684787;28;1094;-67
2022/12/24 00:08:11;;;;;;;16.02;3.80;;;;;;;9.72;100.00;99909.16;683468;28;1986;-66
2022/12/24 00:08:32;;;;;;;16.17;3.67;;;;;;;9.68;100.00;99910.09;684401;28;1360;-66
2022/12/24 00:08:52;;;;;;;15.70;3.42;;;;;;;9.71;100.00;99910.03;687174;28;1067;-66
2022/12/24 00:09:13;;;;;;;19.13;3.50;;;;;;;9.71;100.00;99916.09;687829;28;1083;-67
2022/12/24 00:09:33;;;;;;;21.02;3.80;;;;;;;9.78;100.00;99913.44;688703;28;1045;-66
2022/12/24 00:09:53;;;;;;;15.77;3.73;;;;;;;9.75;100.00;99911.72;687816;28;4304;-66
2022/12/24 00:10:14;;;;;;;15.15;3.47;;;;;;;9.68;100.00;99920.53;687538;28;1222;-66
2022/12/24 00:10:34;;;;;;;16.93;3.97;;;;;;;9.64;100.00;99916.22;687840;28;1040;-66
2022/12/24 00:10:55;;;;;;;18.15;4.53;;;;;;;9.67;100.00;99913.56;682249;28;1357;-65
2022/12/24 00:11:16;;;;;;;16.27;4.17;;;;;;;9.64;100.00;99919.69;681705;28;947;-66
2022/12/24 00:11:36;;;;;;;15.95;3.80;;;;;;;9.63;100.00;99915.34;682887;28;1092;-67
2022/12/24 00:11:57;;;;;;;15.30;3.70;;;;;;;9.64;100.00;99911.88;681597;28;1680;-67
2022/12/24 00:12:17;;;;;;;19.10;3.87;;;;;;;9.60;100.00;99920.63;682694;28;1202;-67
2022/12/24 00:12:38;;;;;;;18.35;3.90;;;;;;;9.57;100.00;99918.06;680851;28;4667;-66
2022/12/24 00:12:58;;;;;;;16.53;4.03;;;;;;;9.53;100.00;99919.81;685470;28;1275;-67
2022/12/24 00:13:19;;;;;;;17.70;4.10;;;;;;;9.53;100.00;99919.81;686511;28;1237;-66
2022/12/24 00:13:40;;;;;;;17.35;4.03;;;;;;;9.50;100.00;99925.09;683683;28;1638;-67
2022/12/24 00:14:00;;;;;;;17.33;3.90;;;;;;;9.51;100.00;99934.66;683158;28;1230;-68
2022/12/24 00:14:21;;;;;;;18.47;3.97;;;;;;;9.49;100.00;99925.97;683703;28;1069;-67
2022/12/24 00:14:41;;;;;;;18.63;3.75;;;;;;;9.50;100.00;99925.09;684079;28;1112;-67
2022/12/24 00:15:03;;;;;;;17.40;3.63;;;;;;;9.54;100.00;99923.31;683653;28;1017;-67
2022/12/24 00:15:24;;;;;;;17.90;3.92;;;;;;;9.54;100.00;99918.94;684013;28;1204;-68
2022/12/24 00:15:44;;;;;;;17.15;4.18;;;;;;;9.60;100.00;99920.63;685041;28;4622;-67
2022/12/24 00:16:05;;;;;;;14.95;4.22;;;;;;;9.59;100.00;99921.47;685972;28;1196;-66
2022/12/24 00:16:26;;;;;;;17.43;3.83;;;;;;;9.61;100.00;99916.25;685821;28;1267;-67
2022/12/24 00:16:46;;;;;;;19.63;3.65;;;;;;;9.64;100.00;99918.84;685296;28;1478;-67
2022/12/24 00:17:07;;;;;;;15.33;3.70;;;;;;;9.66;100.00;99920.56;684853;28;1310;-68
2022/12/24 00:17:27;;;;;;;13.90;3.50;;;;;;;9.61;100.00;99921.47;686229;28;1402;-67
2022/12/24 00:17:47;;;;;;;15.73;3.97;;;;;;;9.69;100.00;99922.22;681654;29;986;-67
2022/12/24 00:18:08;;;;;;;16.02;4.00;;;;;;;9.64;100.00;99924.06;680579;29;1257;-68
2022/12/24 00:18:28;;;;;;;19.70;4.47;;;;;;;9.58;100.00;99929.34;679251;29;1002;-67
2022/12/24 00:18:48;;;;;;;18.97;4.37;;;;;;;9.56;100.00;99928.50;680072;29;4368;-67
2022/12/24 00:19:09;;;;;;;16.10;3.70;;;;;;;9.56;100.00;99921.53;682534;28;1134;-67
2022/12/24 00:19:29;;;;;;;16.10;3.73;;;;;;;9.55;100.00;99917.19;683255;28;1195;-66
2022/12/24 00:19:49;;;;;;;15.18;3.40;;;;;;;9.56;100.00;99928.50;686273;28;1045;-67
2022/12/24 00:20:10;;;;;;;15.53;3.30;;;;;;;9.58;100.00;99926.72;685970;28;3841;-67
2022/12/24 00:20:30;;;;;;;12.43;3.50;;;;;;;9.65;100.00;99925.75;686425;28;998;-67
2022/12/24 00:20:51;;;;;;;15.00;4.10;;;;;;;9.72;100.00;99927.44;683384;28;1604;-66
2022/12/24 00:21:11;;;;;;;16.23;3.70;;;;;;;9.76;100.00;99926.50;683685;28;1233;-67
2022/12/24 00:21:31;;;;;;;17.13;3.45;;;;;;;9.73;100.00;99930.91;683145;28;1046;-68
2022/12/24 00:21:52;;;;;;;15.20;3.67;;;;;;;9.73;100.00;99926.53;681987;28;4704;-67
2022/12/24 00:22:12;;;;;;;15.95;4.20;;;;;;;9.68;100.00;99928.34;680627;28;1437;-67
2022/12/24 00:22:33;;;;;;;17.03;4.27;;;;;;;9.70;100.00;99934.41;681237;28;1111;-68
2022/12/24 00:22:53;;;;;;;15.30;4.05;;;;;;;9.64;100.00;99937.97;683289;28;1296;-67
2022/12/24 00:23:14;;;;;;;18.17;4.03;;;;;;;9.64;100.00;99939.72;683299;28;1243;-67
2022/12/24 00:23:34;;;;;;;17.63;4.15;;;;;;;9.70;100.00;99947.47;679936;29;1323;-67
2022/12/24 00:23:55;;;;;;;18.77;4.30;;;;;;;9.65;100.00;99944.03;681066;29;1266;-66
2022/12/24 00:24:15;;;;;;;15.67;3.67;;;;;;;9.65;100.00;99942.31;682387;28;987;-67
2022/12/24 00:24:36;;;;;;;15.02;3.67;;;;;;;9.69;100.00;99940.50;682124;28;4684;-67
2022/12/24 00:24:56;;;;;;;15.80;3.60;;;;;;;9.75;100.00;99937.81;683298;28;1299;-66
2022/12/24 00:25:17;;;;;;;16.95;3.80;;;;;;;9.73;100.00;99942.19;683335;28;1058;-67
2022/12/24 00:25:37;;;;;;;16.57;3.60;;;;;;;9.67;100.00;99937.91;683635;28;966;-66
2022/12/24 00:25:58;;;;;;;16.13;3.53;;;;;;;9.65;100.00;99944.03;683321;28;996;-66
2022/12/24 00:26:18;;;;;;;19.87;3.70;;;;;;;9.61;100.00;99942.34;683624;28;1069;-66
2022/12/24 00:26:38;;;;;;;21.05;3.88;;;;;;;9.59;100.00;99944.97;682399;28;1199;-67
2022/12/24 00:26:59;;;;;;;18.77;3.83;;;;;;;9.60;100.00;99940.63;682830;28;1167;-67
2022/12/24 00:27:19;;;;;;;19.90;4.35;;;;;;;9.71;100.00;99943.97;683093;28;1560;-66
2022/12/24 00:27:40;;;;;;;20.30;4.70;;;;;;;9.70;100.00;99942.22;679156;28;5343;-65
2022/12/24 00:28:00;;;;;;;18.85;4.15;;;;;;;9.77;100.00;99933.44;683204;28;1073;-64
2022/12/24 00:28:21;;;;;;;17.50;3.70;;;;;;;9.75;100.00;99940.44;683255;28;1910;-67
2022/12/24 00:28:41;;;;;;;19.65;3.90;;;;;;;9.69;100.00;99943.09;683237;28;1231;-67
2022/12/24 00:29:02;;;;;;;17.47;3.60;;;;;;;9.70;100.00;99930.03;683405;28;1120;-65
2022/12/24 00:29:22;;;;;;;16.38;3.70;;;;;;;9.66;100.00;99935.31;682966;28;1225;-67
2022/12/24 00:29:43;;;;;;;18.15;3.70;;;;;;;9.60;100.00;99935.41;683140;28;1183;-66
2022/12/24 00:30:04;;;;;;;15.67;3.50;;;;;;;9.64;100.00;99934.50;685504;28;1211;-66
2022/12/24 00:30:24;;;;;;;16.52;3.35;;;;;;;9.62;100.00;99941.47;685251;28;1168;-65
2022/12/24 00:30:44;;;;;;;17.17;3.70;;;;;;;9.58;100.00;99943.28;684562;28;5246;-66
2022/12/24 00:31:14;;;;;;;16.80;3.80;;;;;;;9.48;100.00;99950.31;685014;28;1375;-67
2022/12/24 00:31:34;;;;;;;20.90;3.95;;;;;;;9.45;100.00;99941.69;686083;28;1384;-67
2022/12/24 00:31:55;;;;;;;18.65;3.92;;;;;;;9.45;100.00;99952.13;686484;28;1073;-66
2022/12/24 00:32:15;;;;;;;20.40;4.27;;;;;;;9.46;100.00;99943.41;685925;28;1317;-67
2022/12/24 00:32:37;;;;;;;19.00;4.15;;;;;;;9.42;100.00;99949.53;686449;28;1329;-65
2022/12/24 00:32:57;;;;;;;18.15;3.85;;;;;;;9.49;100.00;99940.75;685493;28;1077;-66
2022/12/24 00:33:18;;;;;;;19.07;3.60;;;;;;;9.52;100.00;99944.19;685624;28;1147;-66
2022/12/24 00:33:38;;;;;;;20.10;3.75;;;;;;;9.48;100.00;99947.69;683122;28;4639;-66
2022/12/24 00:33:59;;;;;;;18.57;3.70;;;;;;;9.45;100.00;99944.28;685746;28;1445;-65
2022/12/24 00:34:22;;;;;;;20.17;4.32;;;;;;;9.46;100.00;99935.59;687442;28;1360;-65
2022/12/24 00:34:42;;;;;;;18.33;3.90;;;;;;;9.54;100.00;99942.44;687685;28;1558;-65
2022/12/24 00:35:03;;;;;;;15.73;3.80;;;;;;;9.58;100.00;99938.06;688337;28;1602;-67
2022/12/24 00:35:23;;;;;;;15.23;3.50;;;;;;;9.51;100.00;99937.25;687475;28;1455;-64
2022/12/24 00:35:43;;;;;;;17.10;3.40;;;;;;;9.55;100.00;99940.66;687487;28;1164;-67
2022/12/24 00:36:05;;;;;;;16.73;3.58;;;;;;;9.63;100.00;99933.63;687168;28;1274;-64
2022/12/24 00:36:25;;;;;;;18.60;4.07;;;;;;;9.60;100.00;99936.28;687813;28;1419;-66
2022/12/24 00:36:45;;;;;;;18.43;3.87;;;;;;;9.57;100.00;99940.66;684710;28;4497;-67
2022/12/24 00:37:06;;;;;;;19.50;3.97;;;;;;;9.50;100.00;99943.34;685748;28;1232;-66
2022/12/24 00:37:27;;;;;;;17.92;3.53;;;;;;;9.58;100.00;99927.63;686493;28;1340;-65
2022/12/24 00:37:48;;;;;;;17.43;3.77;;;;;;;9.60;100.00;99936.28;685533;28;1233;-66
2022/12/24 00:38:09;;;;;;;17.35;3.60;;;;;;;9.53;100.00;99939.84;685444;28;1118;-67
2022/12/24 00:38:29;;;;;;;19.47;3.80;;;;;;;9.47;100.00;99938.16;688097;28;1072;-67
2022/12/24 00:38:49;;;;;;;20.73;4.30;;;;;;;9.45;100.00;99950.34;689773;28;5176;-67
2022/12/24 00:39:10;;;;;;;18.47;4.00;;;;;;;9.56;100.00;99938.94;690787;28;1618;-64
2022/12/24 00:39:30;;;;;;;17.63;4.10;;;;;;;9.52;100.00;99927.66;690283;28;1296;-67
2022/12/24 00:39:51;;;;;;;17.80;4.07;;;;;;;9.54;100.00;99941.56;688810;28;4908;-66
2022/12/24 00:40:11;;;;;;;16.05;3.80;;;;;;;9.51;100.00;99933.75;685449;28;1295;-67
2022/12/24 00:40:32;;;;;;;17.60;3.80;;;;;;;9.46;100.00;99931.22;685444;28;1263;-66
2022/12/24 00:41:00;;;;;;;19.00;3.85;;;;;;;9.41;100.00;99934.78;685483;28;1296;-68
2022/12/24 00:41:23;;;;;;;15.35;3.28;;;;;;;9.48;100.00;99939.88;685030;28;1196;-66
2022/12/24 00:41:44;;;;;;;17.38;3.45;;;;;;;9.47;100.00;99934.69;685023;28;1457;-66
2022/12/24 00:42:04;;;;;;;18.73;3.50;;;;;;;9.41;100.00;99940.84;686716;28;1243;-66
2022/12/24 00:42:25;;;;;;;16.83;3.50;;;;;;;9.38;100.00;99940.88;687830;28;1099;-66
2022/12/24 00:42:45;;;;;;;15.30;3.40;;;;;;;9.37;100.00;99939.16;688209;28;4405;-66
2022/12/24 00:43:05;;;;;;;17.47;3.70;;;;;;;9.40;100.00;99933.03;687476;28;1214;-65
2022/12/24 00:43:27;;;;;;;16.77;3.92;;;;;;;9.43;100.00;99940.81;688080;28;1424;-65
2022/12/24 00:43:47;;;;;;;15.75;3.88;;;;;;;9.53;100.00;99938.09;686618;28;1132;-67
2022/12/24 00:44:11;;;;;;;19.97;3.30;;;;;;;9.48;100.00;99931.19;687309;28;1380;-66
2022/12/24 00:44:31;;;;;;;18.25;3.88;;;;;;;9.47;100.00;99935.56;686289;28;1177;-64
2022/12/24 00:44:51;;;;;;;20.42;4.18;;;;;;;9.45;100.00;99932.09;689723;28;932;-65
2022/12/24 00:45:12;;;;;;;21.53;4.30;;;;;;;9.46;100.00;99933.81;688355;28;1310;-64
2022/12/24 00:45:32;;;;;;;17.60;3.50;;;;;;;9.49;100.00;99938.16;688954;28;1294;-66
2022/12/24 00:45:52;;;;;;;15.73;3.23;;;;;;;9.51;100.00;99939.88;688914;28;4480;-65
2022/12/24 00:46:13;;;;;;;18.70;3.50;;;;;;;9.48;100.00;99939.88;687438;28;1187;-65
2022/12/24 00:46:33;;;;;;;15.77;3.35;;;;;;;9.42;100.00;99937.34;687076;28;993;-65
2022/12/24 00:46:54;;;;;;;18.57;3.60;;;;;;;9.37;100.00;99942.63;688423;28;1371;-65
2022/12/24 00:47:14;;;;;;;18.45;3.60;;;;;;;9.33;100.00;99935.72;687645;28;1286;-65
2022/12/24 00:47:35;;;;;;;22.33;3.93;;;;;;;9.32;100.00;99939.22;687755;28;1273;-65
2022/12/24 00:47:55;;;;;;;21.23;3.70;;;;;;;9.34;100.00;99945.25;688114;28;1163;-65
2022/12/24 00:48:15;;;;;;;20.17;4.07;;;;;;;9.33;100.00;99940.06;687950;28;1911;-66
2022/12/24 00:48:35;;;;;;;18.67;4.40;;;;;;;9.31;100.00;99940.06;687164;28;4433;-65
2022/12/24 00:48:56;;;;;;;18.17;4.00;;;;;;;9.32;100.00;99941.81;688352;28;1159;-65
2022/12/24 00:49:16;;;;;;;18.37;3.70;;;;;;;9.30;100.00;99943.56;687911;28;770;-65
2022/12/24 00:49:37;;;;;;;18.73;3.88;;;;;;;9.34;100.00;99941.78;687334;28;1143;-64
2022/12/24 00:49:57;;;;;;;17.17;3.67;;;;;;;9.37;100.00;99941.75;687807;28;1119;-66
2022/12/24 00:50:18;;;;;;;19.15;3.75;;;;;;;9.42;100.00;99942.56;688246;28;1138;-64
2022/12/24 00:50:38;;;;;;;18.10;3.50;;;;;;;9.48;100.00;99942.47;687661;28;1251;-64
2022/12/24 00:50:58;;;;;;;16.75;4.07;;;;;;;9.51;100.00;99933.75;688377;28;1410;-65
2022/12/24 00:51:20;;;;;;;17.73;3.53;;;;;;;9.57;100.00;99941.53;687493;28;1067;-65
2022/12/24 00:51:40;;;;;;;19.33;3.95;;;;;;;9.51;100.00;99933.75;688037;28;4533;-65
2022/12/24 00:52:02;;;;;;;18.13;3.93;;;;;;;9.46;100.00;99928.63;685332;28;1337;-65
2022/12/24 00:52:22;;;;;;;18.92;3.53;;;;;;;9.48;100.00;99937.28;685647;28;1239;-65
2022/12/24 00:52:42;;;;;;;17.23;3.70;;;;;;;9.47;100.00;99935.56;685850;28;1123;-64
2022/12/24 00:53:03;;;;;;;16.93;3.60;;;;;;;9.50;100.00;99937.28;686169;28;1473;-65
2022/12/24 00:53:23;;;;;;;13.85;3.17;;;;;;;9.46;100.00;99932.97;687153;28;1513;-65
2022/12/24 00:53:43;;;;;;;16.00;3.43;;;;;;;9.46;100.00;99936.44;687284;28;1245;-64
2022/12/24 00:54:05;;;;;;;17.67;3.80;;;;;;;9.43;100.00;99946.03;686273;28;879;-66
2022/12/24 00:54:25;;;;;;;20.42;3.67;;;;;;;9.48;100.00;99947.69;687298;28;1247;-65
2022/12/24 00:54:45;;;;;;;16.73;3.40;;;;;;;9.46;100.00;99946.03;687070;28;4411;-65
2022/12/24 00:55:06;;;;;;;16.73;3.60;;;;;;;9.42;100.00;99941.72;687193;28;1128;-65
2022/12/24 00:55:27;;;;;;;18.48;3.65;;;;;;;9.38;100.00;99946.09;689373;28;1562;-65
2022/12/24 00:55:47;;;;;;;20.70;3.97;;;;;;;9.34;100.00;99944.41;688248;28;1072;-65
2022/12/24 00:56:08;;;;;;;19.10;4.00;;;;;;;9.32;100.00;99949.63;688045;28;1006;-65
2022/12/24 00:56:28;;;;;;;20.58;4.15;;;;;;;9.29;100.00;99952.28;687626;28;1243;-65
2022/12/24 00:56:49;;;;;;;17.98;4.00;;;;;;;9.30;100.00;99950.53;688879;28;1072;-65
2022/12/24 00:57:09;;;;;;;19.67;3.87;;;;;;;9.28;100.00;99954.91;687723;28;968;-65
2022/12/24 00:57:29;;;;;;;19.05;3.70;;;;;;;9.25;100.00;99958.41;687808;28;1083;-65
2022/12/24 00:57:50;;;;;;;18.20;3.77;;;;;;;9.23;100.00;99960.16;687595;28;4367;-66
2022/12/24 00:58:10;;;;;;;15.85;3.47;;;;;;;9.22;100.00;99958.47;687342;28;1301;-65
2022/12/24 00:58:30;;;;;;;15.53;3.30;;;;;;;9.19;100.00;99961.97;688670;28;1009;-65
2022/12/24 00:58:53;;;;;;;16.60;3.40;;;;;;;9.19;100.00;99959.34;688818;28;1233;-66
2022/12/24 00:59:13;;;;;;;19.75;4.00;;;;;;;9.18;100.00;99967.19;687974;28;1265;-65
2022/12/24 00:59:33;;;;;;;20.40;3.97;;;;;;;9.17;100.00;99963.69;689115;28;1024;-65
2022/12/24 00:59:54;;;;;;;16.67;3.78;;;;;;;9.28;100.00;99962.75;687319;28;1279;-63
2022/12/24 01:00:16;;;;;;;19.00;3.60;;;;;;;9.42;100.00;99971.28;687800;28;1217;-68
2022/12/24 01:00:37;;;;;;;20.50;3.55;;;;;;;9.43;100.00;99965.19;687480;28;4423;-66
2022/12/24 01:00:57;;;;;;;19.20;3.75;;;;;;;9.41;100.00;99966.94;686573;28;1200;-66
2022/12/24 01:01:18;;;;;;;20.93;3.80;;;;;;;9.43;100.00;99965.19;687512;28;1301;-65
2022/12/24 01:01:39;;;;;;;18.50;3.72;;;;;;;9.37;100.00;99971.34;686723;28;992;-65
2022/12/24 01:01:59;;;;;;;19.03;3.53;;;;;;;9.34;100.00;99975.72;686650;28;1090;-65
2022/12/24 01:02:20;;;;;;;17.20;3.72;;;;;;;9.31;100.00;99970.53;686974;28;1684;-66
2022/12/24 01:02:40;;;;;;;18.37;3.70;;;;;;;9.26;100.00;99972.31;688530;28;1064;-65
2022/12/24 01:03:00;;;;;;;21.85;4.03;;;;;;;9.31;100.00;99973.13;687451;28;1228;-66
2022/12/24 01:03:21;;;;;;;22.53;3.87;;;;;;;9.31;100.00;99965.31;688376;28;1246;-68
2022/12/24 01:03:41;;;;;;;16.60;3.63;;;;;;;9.29;100.00;99978.38;688590;28;4402;-66
2022/12/24 01:05:19;;;;;;;20.55;3.97;;;;;;;9.27;100.00;99974.03;687803;28;1236;-65
2022/12/24 01:05:40;;;;;;;18.40;3.80;;;;;;;9.35;100.00;99972.22;689569;28;1099;-64
2022/12/24 01:06:05;;;;;;;16.27;3.58;;;;;;;9.39;100.00;99968.69;687946;28;1295;-65
2022/12/24 01:06:26;;;;;;;17.73;3.60;;;;;;;9.44;100.00;99972.13;686490;28;1535;-64
2022/12/24 01:06:46;;;;;;;19.47;3.50;;;;;;;9.41;100.00;99974.75;687320;28;4309;-65
2022/12/24 01:07:06;;;;;;;17.33;3.73;;;;;;;9.35;100.00;99972.22;686667;28;1525;-64
2022/12/24 01:07:27;;;;;;;18.73;3.80;;;;;;;9.29;100.00;99967.94;684966;28;1597;-65
2022/12/24 01:07:47;;;;;;;17.07;3.70;;;;;;;9.24;100.00;99972.34;684252;28;1108;-65
2022/12/24 01:08:08;;;;;;;16.55;3.78;;;;;;;9.26;100.00;99969.69;684729;28;935;-65
2022/12/24 01:08:28;;;;;;;16.83;3.60;;;;;;;9.25;100.00;99965.34;683408;28;1915;-65
2022/12/24 01:08:49;;;;;;;21.93;4.00;;;;;;;9.26;100.00;99962.72;683128;28;1097;-64
2022/12/24 01:09:10;;;;;;;25.58;4.07;;;;;;;9.28;100.00;99968.81;688205;28;920;-65
2022/12/24 01:09:30;;;;;;;19.33;3.70;;;;;;;9.32;100.00;99959.22;687578;28;1001;-65
2022/12/24 01:09:50;;;;;;;19.10;3.83;;;;;;;9.36;100.00;99958.31;689194;28;4509;-65
2022/12/24 01:10:17;;;;;;;18.33;3.70;;;;;;;9.33;100.00;99966.13;688559;28;1105;-65
2022/12/24 01:10:37;;;;;;;17.85;3.55;;;;;;;9.24;100.00;99963.66;689333;28;1045;-65
2022/12/24 01:10:58;;;;;;;18.48;3.30;;;;;;;9.25;100.00;99960.16;688888;28;1369;-65
2022/12/24 01:11:18;;;;;;;17.63;3.33;;;;;;;9.26;100.00;99962.72;686741;28;1207;-64
2022/12/24 01:11:39;;;;;;;16.43;3.60;;;;;;;9.27;100.00;99956.66;688165;28;1075;-64
2022/12/24 01:11:59;;;;;;;18.33;3.70;;;;;;;9.33;100.00;99964.41;687551;28;1091;-64
2022/12/24 01:12:20;;;;;;;21.33;4.33;;;;;;;9.37;100.00;99962.63;689027;28;1237;-65
2022/12/24 01:12:41;;;;;;;19.85;4.45;;;;;;;9.32;100.00;99959.22;687756;28;4438;-63
2022/12/24 01:13:02;;;;;;;16.38;3.58;;;;;;;9.31;100.00;99960.09;686693;28;2033;-64
2022/12/24 01:13:23;;;;;;;18.15;3.63;;;;;;;9.27;100.00;99959.25;686126;28;1402;-65
2022/12/24 01:13:43;;;;;;;20.58;4.05;;;;;;;9.23;100.00;99969.75;686153;28;1451;-65
2022/12/24 01:14:04;;;;;;;18.75;3.50;;;;;;;9.20;100.00;99968.03;686639;28;1159;-65
2022/12/24 01:14:24;;;;;;;20.47;3.70;;;;;;;9.18;100.00;99967.19;686431;28;1081;-64
2022/12/24 01:14:44;;;;;;;19.53;3.77;;;;;;;9.19;100.00;99974.13;686111;28;1227;-66
2022/12/24 01:15:06;;;;;;;17.92;3.80;;;;;;;9.13;100.00;99968.97;688291;28;1541;-66
2022/12/24 01:15:27;;;;;;;15.40;3.63;;;;;;;9.10;100.00;99967.25;687500;28;1010;-65
2022/12/24 01:15:50;;;;;;;17.10;3.43;;;;;;;9.15;100.00;99967.19;687314;28;4388;-65
2022/12/24 01:16:19;;;;;;;18.33;3.72;;;;;;;9.14;100.00;99968.97;684447;28;1080;-64
2022/12/24 01:16:39;;;;;;;21.35;4.20;;;;;;;9.19;100.00;99969.78;685705;28;932;-64
2022/12/24 01:16:59;;;;;;;15.93;3.67;;;;;;;9.16;100.00;99967.19;685257;28;1128;-64
2022/12/24 01:17:20;;;;;;;15.37;3.63;;;;;;;9.16;100.00;99976.75;684799;28;1099;-65
2022/12/24 01:17:40;;;;;;;17.38;3.92;;;;;;;9.11;100.00;99974.22;685702;28;1131;-66
2022/12/24 01:18:00;;;;;;;21.40;4.00;;;;;;;9.12;100.00;99970.69;686650;28;1265;-66
2022/12/24 01:18:22;;;;;;;22.20;3.77;;;;;;;9.14;100.00;99973.31;688515;28;1271;-63
2022/12/24 01:18:42;;;;;;;20.80;4.15;;;;;;;9.16;100.00;99971.53;687237;28;4444;-64
2022/12/24 01:19:03;;;;;;;20.08;4.13;;;;;;;9.12;100.00;99973.31;687510;28;1170;-64
2022/12/24 01:19:23;;;;;;;18.73;4.30;;;;;;;9.09;100.00;99975.94;687574;28;1515;-64
2022/12/24 01:19:44;;;;;;;16.05;4.38;;;;;;;9.03;100.00;99971.66;688175;28;1039;-64
2022/12/24 01:20:07;;;;;;;18.70;3.80;;;;;;;8.99;100.00;99975.19;688113;28;1326;-64
2022/12/24 01:20:30;;;;;;;16.77;3.67;;;;;;;8.98;100.00;99969.97;686934;28;1476;-65
2022/12/24 01:20:59;;;;;;;16.60;3.65;;;;;;;8.96;100.00;99979.56;688338;28;1410;-65
2022/12/24 01:21:19;;;;;;;14.90;3.63;;;;;;;8.94;100.00;99976.09;685671;28;1391;-65
2022/12/24 01:21:40;;;;;;;13.77;3.60;;;;;;;9.00;100.00;99971.69;684524;28;4520;-65
2022/12/24 01:22:00;;;;;;;18.27;3.80;;;;;;;9.08;100.00;99974.22;685787;28;1100;-65
2022/12/24 01:22:20;;;;;;;18.35;3.85;;;;;;;9.06;100.00;99976.00;685138;28;1116;-64
2022/12/24 01:22:41;;;;;;;19.33;3.80;;;;;;;9.05;100.00;99987.28;683762;28;1336;-66
2022/12/24 01:23:01;;;;;;;18.63;3.80;;;;;;;9.07;100.00;99976.84;683747;28;1200;-64
2022/12/24 01:23:22;;;;;;;17.15;3.60;;;;;;;9.07;100.00;99977.72;688348;28;1092;-64
2022/12/24 01:23:42;;;;;;;18.53;3.80;;;;;;;9.15;100.00;99983.72;688056;28;1195;-64
2022/12/24 01:24:03;;;;;;;19.85;3.65;;;;;;;9.11;100.00;99974.22;686909;28;1247;-65
2022/12/24 01:24:23;;;;;;;20.02;4.07;;;;;;;9.16;100.00;99981.97;688503;28;1216;-64
2022/12/24 01:24:44;;;;;;;19.00;4.87;;;;;;;9.25;100.00;99984.50;685744;28;4340;-65
2022/12/24 01:25:04;;;;;;;20.58;4.00;;;;;;;9.32;100.00;99990.53;686227;28;1211;-64
2022/12/24 01:25:25;;;;;;;22.83;4.60;;;;;;;9.30;100.00;99985.28;688767;28;1298;-65
2022/12/24 01:25:45;;;;;;;17.87;4.20;;;;;;;9.37;100.00;99983.50;687652;28;1048;-64
2022/12/24 01:26:06;;;;;;;19.90;4.43;;;;;;;9.32;100.00;99982.69;688337;28;1164;-65
2022/12/24 01:26:26;;;;;;;21.40;4.40;;;;;;;9.24;100.00;99984.53;687525;28;1567;-64
2022/12/24 01:26:46;;;;;;;22.77;4.60;;;;;;;9.18;100.00;99988.91;688192;28;1593;-65
2022/12/24 01:27:07;;;;;;;22.95;5.00;;;;;;;9.15;100.00;99993.28;688545;28;1548;-64
2022/12/24 01:27:27;;;;;;;19.87;4.40;;;;;;;9.13;100.00;99997.66;688699;28;1268;-65
2022/12/24 01:27:48;;;;;;;16.77;4.28;;;;;;;9.08;100.00;99996.81;687523;28;4549;-64
2022/12/24 01:28:08;;;;;;;16.97;4.00;;;;;;;9.11;100.00;99999.41;687963;28;1067;-64
2022/12/24 01:28:29;;;;;;;19.50;4.93;;;;;;;9.09;100.00;99996.81;687359;28;1980;-65
2022/12/24 01:28:49;;;;;;;17.90;4.43;;;;;;;9.07;100.00;100006.41;688139;28;1053;-65
2022/12/24 01:29:09;;;;;;;18.80;4.13;;;;;;;9.14;100.00;99991.56;684833;28;953;-63
2022/12/24 01:29:30;;;;;;;18.80;4.60;;;;;;;9.20;100.00;100000.16;682873;28;1056;-64
2022/12/24 01:29:50;;;;;;;19.13;4.63;;;;;;;9.19;100.00;99994.97;685416;28;1100;-67
2022/12/24 01:30:13;;;;;;;19.47;4.33;;;;;;;9.18;100.00;100007.16;686145;28;1195;-64
2022/12/24 01:30:33;;;;;;;17.20;4.45;;;;;;;9.18;100.00;100004.56;683413;28;1082;-64
2022/12/24 01:30:53;;;;;;;16.47;4.50;;;;;;;9.30;100.00;100000.09;682997;28;4368;-64
2022/12/24 01:31:17;;;;;;;19.13;4.70;;;;;;;9.37;100.00;100006.97;686019;28;1264;-64
2022/12/24 01:31:37;;;;;;;21.20;4.75;;;;;;;9.31;100.00;100005.28;688148;28;1152;-64
2022/12/24 01:31:58;;;;;;;19.07;4.40;;;;;;;9.24;100.00;100003.63;688998;28;1162;-64
2022/12/24 01:32:18;;;;;;;18.63;3.97;;;;;;;9.18;100.00;100003.69;688689;28;1081;-66
2022/12/24 01:32:38;;;;;;;18.67;4.27;;;;;;;9.12;100.00;99998.53;690735;28;1030;-65
2022/12/24 01:32:59;;;;;;;19.98;4.63;;;;;;;9.12;100.00;100009.81;691193;28;1087;-66
2022/12/24 01:33:20;;;;;;;17.87;4.00;;;;;;;9.10;100.00;100008.13;686883;28;1321;-68
2022/12/24 01:33:41;;;;;;;16.80;4.55;;;;;;;9.07;100.00;100006.41;687049;28;4889;-67
2022/12/24 01:34:01;;;;;;;18.55;4.70;;;;;;;9.09;100.00;100002.03;687858;28;1108;-64
2022/12/24 01:34:21;;;;;;;21.88;4.82;;;;;;;9.08;100.00;99995.06;688847;28;1293;-63
2022/12/24 01:34:42;;;;;;;18.80;4.17;;;;;;;9.06;100.00;100004.66;687782;28;1215;-64
2022/12/24 01:35:03;;;;;;;17.77;4.03;;;;;;;9.03;100.00;100002.09;688768;28;1151;-65
2022/12/24 01:35:23;;;;;;;20.57;4.20;;;;;;;9.16;100.00;100002.84;689359;28;1314;-63
2022/12/24 01:35:43;;;;;;;16.58;4.13;;;;;;;9.20;100.00;100002.78;688051;28;943;-65
2022/12/24 01:36:04;;;;;;;18.20;4.00;;;;;;;9.16;100.00;100003.69;686883;28;1139;-64
2022/12/24 01:36:25;;;;;;;17.33;4.28;;;;;;;9.13;100.00;99997.66;688545;28;1107;-63
2022/12/24 01:36:45;;;;;;;16.33;3.93;;;;;;;9.26;100.00;99995.78;684634;28;4419;-63
2022/12/24 01:37:05;;;;;;;18.85;3.60;;;;;;;9.23;100.00;100003.66;688046;28;1333;-64
2022/12/24 01:37:26;;;;;;;18.23;3.83;;;;;;;9.19;100.00;100008.00;689613;28;1058;-64
2022/12/24 01:37:46;;;;;;;18.95;3.95;;;;;;;9.31;100.00;99996.63;688254;28;1313;-64
2022/12/24 01:38:08;;;;;;;17.10;3.97;;;;;;;9.33;100.00;100000.94;687446;28;1427;-63
2022/12/24 01:38:28;;;;;;;15.75;4.13;;;;;;;9.32;100.00;100008.78;687051;28;1395;-64
2022/12/24 01:38:49;;;;;;;20.37;4.43;;;;;;;9.24;100.00;100006.22;687662;28;5166;-64
2022/12/24 01:39:09;;;;;;;20.77;4.53;;;;;;;9.13;100.00;100003.72;688873;28;1066;-63
2022/12/24 01:39:29;;;;;;;18.10;4.00;;;;;;;9.09;100.00;100009.84;689259;28;1426;-64
2022/12/24 01:39:50;;;;;;;17.70;4.30;;;;;;;9.05;100.00;99995.09;687490;28;4317;-65
2022/12/24 01:43:41;;;;;;;21.63;4.57;;;;;;;9.13;100.00;100006.34;690475;28;1240;-63